sensor_id;sensor_type;location;lat;lon;timestamp;temperature;humidity
19906;DHT22;10115;50.906;4.438;2023-03-02T00:00:34;0.20;99.90
19906;DHT22;10115;50.906;4.438;2023-03-02T00:03:00;0.30;99.90
19906;DHT22;10115;50.906;4.438;2023-03-02T00:05:27;0.20;99.90
19906;DHT22;10115;50.906;4.438;2023-03-02T00:07:54;0.10;99.90
19906;DHT22;10115;50.906;4.438;2023-03-02T00:10:20;0.10;99.90
19906;DHT22;10115;50.906;4.438;2023-03-02T00:12:46;0.00;99.90
19906;DHT22;10115;50.906;4.438;2023-03-02T00:15:12;0.00;99.90
19906;DHT22;10115;50.906;4.438;2023-03-02T00:17:37;0.10;99.90
19906;DHT22;10115;50.906;4.438;2023-03-02T00:20:03;0.20;99.90
19906;DHT22;10115;50.906;4.438;2023-03-02T00:22:35;0.10;99.90
19906;DHT22;10115;50.906;4.438;2023-03-02T00:25:01;0.10;99.90
19906;DHT22;10115;50.906;4.438;2023-03-02T00:27:27;0.00;99.90
19906;DHT22;10115;50.906;4.438;2023-03-02T00:29:57;-0.10;99.90
19906;DHT22;10115;50.906;4.438;2023-03-02T00:32:23;-0.10;99.90
19906;DHT22;10115;50.906;4.438;2023-03-02T00:34:50;-0.10;99.90
19906;DHT22;10115;50.906;4.438;2023-03-02T00:37:15;-0.10;99.90
19906;DHT22;10115;50.906;4.438;2023-03-02T00:39:41;-0.10;99.90
19906;DHT22;10115;50.906;4.438;2023-03-02T00:42:07;-0.20;99.90
19906;DHT22;10115;50.906;4.438;2023-03-02T00:44:33;-0.10;99.90
19906;DHT22;10115;50.906;4.438;2023-03-02T00:46:58;-0.20;99.90
19906;DHT22;10115;50.906;4.438;2023-03-02T00:49:24;-0.20;99.90
19906;DHT22;10115;50.906;4.438;2023-03-02T00:51:50;-0.20;99.90
19906;DHT22;10115;50.906;4.438;2023-03-02T00:54:16;-0.10;99.90
19906;DHT22;10115;50.906;4.438;2023-03-02T00:56:42;-0.20;99.90
19906;DHT22;10115;50.906;4.438;2023-03-02T00:59:10;-0.20;99.90
19906;DHT22;10115;50.906;4.438;2023-03-02T01:01:51;-0.20;99.90
19906;DHT22;10115;50.906;4.438;2023-03-02T01:04:31;-0.20;99.90
19906;DHT22;10115;50.906;4.438;2023-03-02T01:06:59;-0.30;99.90
19906;DHT22;10115;50.906;4.438;2023-03-02T01:09:25;-0.20;99.90
19906;DHT22;10115;50.906;4.438;2023-03-02T01:11:51;-0.30;99.90
19906;DHT22;10115;50.906;4.438;2023-03-02T01:14:17;-0.30;99.90
19906;DHT22;10115;50.906;4.438;2023-03-02T01:16:43;-0.40;99.90
19906;DHT22;10115;50.906;4.438;2023-03-02T01:19:09;-0.30;99.90
19906;DHT22;10115;50.906;4.438;2023-03-02T01:21:35;-0.30;99.90
19906;DHT22;10115;50.906;4.438;2023-03-02T01:24:01;-0.20;99.90
19906;DHT22;10115;50.906;4.438;2023-03-02T01:26:26;-0.20;99.90
19906;DHT22;10115;50.906;4.438;2023-03-02T01:28:52;-0.20;99.90
19906;DHT22;10115;50.906;4.438;2023-03-02T01:31:23;-0.30;99.90
19906;DHT22;10115;50.906;4.438;2023-03-02T01:33:49;-0.50;99.90
19906;DHT22;10115;50.906;4.438;2023-03-02T01:36:16;-0.50;99.90
19906;DHT22;10115;50.906;4.438;2023-03-02T01:38:42;-0.60;99.90
19906;DHT22;10115;50.906;4.438;2023-03-02T01:41:08;-0.60;99.90
19906;DHT22;10115;50.906;4.438;2023-03-02T01:43:34;-0.60;99.90
19906;DHT22;10115;50.906;4.438;2023-03-02T01:49:06;-0.60;99.90
19906;DHT22;10115;50.906;4.438;2023-03-02T01:51:39;-0.60;99.90
19906;DHT22;10115;50.906;4.438;2023-03-02T01:54:10;-0.60;99.90
19906;DHT22;10115;50.906;4.438;2023-03-02T01:56:43;-0.50;99.90
19906;DHT22;10115;50.906;4.438;2023-03-02T01:59:12;-0.60;99.90
19906;DHT22;10115;50.906;4.438;2023-03-02T02:01:42;-0.60;99.90
19906;DHT22;10115;50.906;4.438;2023-03-02T02:04:09;-0.60;99.90
19906;DHT22;10115;50.906;4.438;2023-03-02T02:06:41;-0.50;99.90
19906;DHT22;10115;50.906;4.438;2023-03-02T02:09:10;-0.60;99.90
19906;DHT22;10115;50.906;4.438;2023-03-02T02:11:38;-0.40;99.90
19906;DHT22;10115;50.906;4.438;2023-03-02T02:14:04;-0.50;99.90
19906;DHT22;10115;50.906;4.438;2023-03-02T02:16:32;-0.60;99.90
19906;DHT22;10115;50.906;4.438;2023-03-02T02:18:59;-0.50;99.90
19906;DHT22;10115;50.906;4.438;2023-03-02T02:21:27;-0.50;99.90
19906;DHT22;10115;50.906;4.438;2023-03-02T02:26:49;-0.40;99.90
19906;DHT22;10115;50.906;4.438;2023-03-02T02:29:33;-0.50;99.90
19906;DHT22;10115;50.906;4.438;2023-03-02T02:32:10;-0.50;99.90
19906;DHT22;10115;50.906;4.438;2023-03-02T02:34:47;-0.60;99.90
19906;DHT22;10115;50.906;4.438;2023-03-02T02:37:16;-0.60;99.90
19906;DHT22;10115;50.906;4.438;2023-03-02T02:39:46;-0.60;99.90
19906;DHT22;10115;50.906;4.438;2023-03-02T02:42:15;-0.60;99.90
19906;DHT22;10115;50.906;4.438;2023-03-02T02:44:42;-0.70;99.90
19906;DHT22;10115;50.906;4.438;2023-03-02T02:47:18;-0.70;99.90
19906;DHT22;10115;50.906;4.438;2023-03-02T02:49:45;-0.80;99.90
19906;DHT22;10115;50.906;4.438;2023-03-02T02:52:15;-0.70;99.90
19906;DHT22;10115;50.906;4.438;2023-03-02T02:54:44;-0.70;99.90
19906;DHT22;10115;50.906;4.438;2023-03-02T02:57:11;-0.70;99.90
19906;DHT22;10115;50.906;4.438;2023-03-02T02:59:42;-0.80;99.90
19906;DHT22;10115;50.906;4.438;2023-03-02T03:02:24;-0.70;99.90
19906;DHT22;10115;50.906;4.438;2023-03-02T03:04:50;-0.70;99.90
19906;DHT22;10115;50.906;4.438;2023-03-02T03:07:22;-0.80;99.90
19906;DHT22;10115;50.906;4.438;2023-03-02T03:10:37;-0.80;99.90
19906;DHT22;10115;50.906;4.438;2023-03-02T03:12:38;-0.70;99.90
19906;DHT22;10115;50.906;4.438;2023-03-02T03:15:05;-0.70;99.90
19906;DHT22;10115;50.906;4.438;2023-03-02T03:17:30;-0.70;99.90
19906;DHT22;10115;50.906;4.438;2023-03-02T03:19:56;-0.70;99.90
19906;DHT22;10115;50.906;4.438;2023-03-02T03:22:35;-0.70;99.90
19906;DHT22;10115;50.906;4.438;2023-03-02T03:25:01;-0.80;99.90
19906;DHT22;10115;50.906;4.438;2023-03-02T03:27:27;-0.90;99.90
19906;DHT22;10115;50.906;4.438;2023-03-02T03:29:52;-0.80;99.90
19906;DHT22;10115;50.906;4.438;2023-03-02T03:32:19;-0.80;99.90
19906;DHT22;10115;50.906;4.438;2023-03-02T03:34:45;-0.80;99.90
19906;DHT22;10115;50.906;4.438;2023-03-02T03:37:14;-0.80;99.90
19906;DHT22;10115;50.906;4.438;2023-03-02T03:39:40;-0.80;99.90
19906;DHT22;10115;50.906;4.438;2023-03-02T03:42:06;-0.80;99.90
19906;DHT22;10115;50.906;4.438;2023-03-02T03:44:32;-0.80;99.90
19906;DHT22;10115;50.906;4.438;2023-03-02T03:46:58;-0.80;99.90
19906;DHT22;10115;50.906;4.438;2023-03-02T03:49:24;-0.80;99.90
19906;DHT22;10115;50.906;4.438;2023-03-02T03:51:51;-0.80;99.90
19906;DHT22;10115;50.906;4.438;2023-03-02T03:54:17;-0.80;99.90
19906;DHT22;10115;50.906;4.438;2023-03-02T03:56:45;-0.90;99.90
19906;DHT22;10115;50.906;4.438;2023-03-02T03:59:14;-0.80;99.90
19906;DHT22;10115;50.906;4.438;2023-03-02T04:01:49;-0.80;99.90
19906;DHT22;10115;50.906;4.438;2023-03-02T04:04:19;-0.90;99.90
19906;DHT22;10115;50.906;4.438;2023-03-02T04:06:46;-0.90;99.90
19906;DHT22;10115;50.906;4.438;2023-03-02T04:09:12;-0.90;99.90
19906;DHT22;10115;50.906;4.438;2023-03-02T04:11:41;-0.90;99.90
19906;DHT22;10115;50.906;4.438;2023-03-02T04:14:08;-0.90;99.90
19906;DHT22;10115;50.906;4.438;2023-03-02T04:16:35;-0.90;99.90
19906;DHT22;10115;50.906;4.438;2023-03-02T04:19:01;-1.00;99.90
19906;DHT22;10115;50.906;4.438;2023-03-02T04:21:27;-1.10;99.90
19906;DHT22;10115;50.906;4.438;2023-03-02T04:23:53;-1.00;99.90
19906;DHT22;10115;50.906;4.438;2023-03-02T04:26:19;-1.10;99.90
19906;DHT22;10115;50.906;4.438;2023-03-02T04:28:45;-1.10;99.90
19906;DHT22;10115;50.906;4.438;2023-03-02T04:31:10;-1.20;99.90
19906;DHT22;10115;50.906;4.438;2023-03-02T04:33:36;-1.10;99.90
19906;DHT22;10115;50.906;4.438;2023-03-02T04:36:03;-1.20;99.90
19906;DHT22;10115;50.906;4.438;2023-03-02T04:38:29;-1.10;99.90
19906;DHT22;10115;50.906;4.438;2023-03-02T04:40:56;-1.00;99.90
19906;DHT22;10115;50.906;4.438;2023-03-02T04:43:22;-1.10;99.90
19906;DHT22;10115;50.906;4.438;2023-03-02T04:45:48;-1.10;99.90
19906;DHT22;10115;50.906;4.438;2023-03-02T04:48:14;-1.10;99.90
19906;DHT22;10115;50.906;4.438;2023-03-02T04:50:40;-1.00;99.90
19906;DHT22;10115;50.906;4.438;2023-03-02T04:53:06;-1.00;99.90
19906;DHT22;10115;50.906;4.438;2023-03-02T04:55:32;-1.10;99.90
19906;DHT22;10115;50.906;4.438;2023-03-02T04:57:57;-1.00;99.90
19906;DHT22;10115;50.906;4.438;2023-03-02T05:00:23;-1.00;99.90
19906;DHT22;10115;50.906;4.438;2023-03-02T05:02:50;-1.10;99.90
19906;DHT22;10115;50.906;4.438;2023-03-02T05:05:21;-1.20;99.90
19906;DHT22;10115;50.906;4.438;2023-03-02T05:07:47;-1.20;99.90
19906;DHT22;10115;50.906;4.438;2023-03-02T05:10:15;-1.20;99.90
19906;DHT22;10115;50.906;4.438;2023-03-02T05:12:41;-1.20;99.90
19906;DHT22;10115;50.906;4.438;2023-03-02T05:15:28;-1.30;99.90
19906;DHT22;10115;50.906;4.438;2023-03-02T05:17:55;-1.20;99.90
19906;DHT22;10115;50.906;4.438;2023-03-02T05:20:21;-1.20;99.90
19906;DHT22;10115;50.906;4.438;2023-03-02T05:22:53;-1.30;99.90
19906;DHT22;10115;50.906;4.438;2023-03-02T05:25:20;-1.30;99.90
19906;DHT22;10115;50.906;4.438;2023-03-02T05:27:45;-1.30;99.90
19906;DHT22;10115;50.906;4.438;2023-03-02T05:30:12;-1.20;99.90
19906;DHT22;10115;50.906;4.438;2023-03-02T05:32:37;-1.30;99.90
19906;DHT22;10115;50.906;4.438;2023-03-02T05:35:03;-1.30;99.90
19906;DHT22;10115;50.906;4.438;2023-03-02T05:37:29;-1.30;99.90
19906;DHT22;10115;50.906;4.438;2023-03-02T05:39:55;-1.30;99.90
19906;DHT22;10115;50.906;4.438;2023-03-02T05:42:20;-1.30;99.90
19906;DHT22;10115;50.906;4.438;2023-03-02T05:44:46;-1.30;99.90
19906;DHT22;10115;50.906;4.438;2023-03-02T05:47:12;-1.30;99.90
19906;DHT22;10115;50.906;4.438;2023-03-02T05:49:37;-1.30;99.90
19906;DHT22;10115;50.906;4.438;2023-03-02T05:52:03;-1.30;99.90
19906;DHT22;10115;50.906;4.438;2023-03-02T05:54:28;-1.30;99.90
19906;DHT22;10115;50.906;4.438;2023-03-02T05:56:54;-1.30;99.90
19906;DHT22;10115;50.906;4.438;2023-03-02T05:59:20;-1.40;99.90
19906;DHT22;10115;50.906;4.438;2023-03-02T06:01:45;-1.50;99.90
19906;DHT22;10115;50.906;4.438;2023-03-02T06:04:12;-1.40;99.90
19906;DHT22;10115;50.906;4.438;2023-03-02T06:06:38;-1.40;99.90
19906;DHT22;10115;50.906;4.438;2023-03-02T06:09:04;-1.30;99.90
19906;DHT22;10115;50.906;4.438;2023-03-02T06:11:29;-1.30;99.90
19906;DHT22;10115;50.906;4.438;2023-03-02T06:13:55;-1.40;99.90
19906;DHT22;10115;50.906;4.438;2023-03-02T06:16:20;-1.50;99.90
19906;DHT22;10115;50.906;4.438;2023-03-02T06:18:46;-1.50;99.90
19906;DHT22;10115;50.906;4.438;2023-03-02T06:21:12;-1.40;99.90
19906;DHT22;10115;50.906;4.438;2023-03-02T06:23:37;-1.40;99.90
19906;DHT22;10115;50.906;4.438;2023-03-02T06:26:08;-1.30;99.90
19906;DHT22;10115;50.906;4.438;2023-03-02T06:28:34;-1.40;99.90
19906;DHT22;10115;50.906;4.438;2023-03-02T06:30:59;-1.20;99.90
19906;DHT22;10115;50.906;4.438;2023-03-02T06:33:25;-1.20;99.90
19906;DHT22;10115;50.906;4.438;2023-03-02T06:35:51;-1.20;99.90
19906;DHT22;10115;50.906;4.438;2023-03-02T06:38:16;-1.20;99.90
19906;DHT22;10115;50.906;4.438;2023-03-02T06:40:42;-1.20;99.90
19906;DHT22;10115;50.906;4.438;2023-03-02T06:43:08;-1.20;99.90
19906;DHT22;10115;50.906;4.438;2023-03-02T06:45:34;-1.20;99.90
19906;DHT22;10115;50.906;4.438;2023-03-02T06:48:00;-1.30;99.90
19906;DHT22;10115;50.906;4.438;2023-03-02T06:50:26;-1.30;99.90
19906;DHT22;10115;50.906;4.438;2023-03-02T06:52:52;-1.30;99.90
19906;DHT22;10115;50.906;4.438;2023-03-02T06:55:18;-1.20;99.90
19906;DHT22;10115;50.906;4.438;2023-03-02T06:57:43;-1.10;99.90
19906;DHT22;10115;50.906;4.438;2023-03-02T07:00:11;-1.10;99.90
19906;DHT22;10115;50.906;4.438;2023-03-02T07:02:49;-1.10;99.90
19906;DHT22;10115;50.906;4.438;2023-03-02T07:05:15;-1.00;99.90
19906;DHT22;10115;50.906;4.438;2023-03-02T07:07:40;-0.90;99.90
19906;DHT22;10115;50.906;4.438;2023-03-02T07:10:07;-0.90;99.90
19906;DHT22;10115;50.906;4.438;2023-03-02T07:12:33;-0.90;99.90
19906;DHT22;10115;50.906;4.438;2023-03-02T07:14:59;-0.90;99.90
19906;DHT22;10115;50.906;4.438;2023-03-02T07:17:24;-0.80;99.90
19906;DHT22;10115;50.906;4.438;2023-03-02T07:19:50;-0.70;99.90
19906;DHT22;10115;50.906;4.438;2023-03-02T07:22:16;-0.60;99.90
19906;DHT22;10115;50.906;4.438;2023-03-02T07:24:41;-0.50;99.90
19906;DHT22;10115;50.906;4.438;2023-03-02T07:27:07;-0.50;99.90
19906;DHT22;10115;50.906;4.438;2023-03-02T07:29:32;-0.40;99.90
19906;DHT22;10115;50.906;4.438;2023-03-02T07:31:58;-0.20;99.90
19906;DHT22;10115;50.906;4.438;2023-03-02T07:34:24;-0.20;99.90
19906;DHT22;10115;50.906;4.438;2023-03-02T07:36:50;-0.20;99.90
19906;DHT22;10115;50.906;4.438;2023-03-02T07:39:17;-0.10;99.90
19906;DHT22;10115;50.906;4.438;2023-03-02T07:41:43;-0.10;99.90
19906;DHT22;10115;50.906;4.438;2023-03-02T07:44:08;0.00;99.90
19906;DHT22;10115;50.906;4.438;2023-03-02T07:46:34;0.00;99.90
19906;DHT22;10115;50.906;4.438;2023-03-02T07:49:00;0.10;99.90
19906;DHT22;10115;50.906;4.438;2023-03-02T07:51:26;0.30;99.90
19906;DHT22;10115;50.906;4.438;2023-03-02T07:53:51;0.30;99.90
19906;DHT22;10115;50.906;4.438;2023-03-02T07:56:17;0.40;99.90
19906;DHT22;10115;50.906;4.438;2023-03-02T07:58:43;0.50;99.90
19906;DHT22;10115;50.906;4.438;2023-03-02T08:01:08;0.60;99.90
19906;DHT22;10115;50.906;4.438;2023-03-02T08:03:35;0.70;99.90
19906;DHT22;10115;50.906;4.438;2023-03-02T08:06:09;0.80;99.90
19906;DHT22;10115;50.906;4.438;2023-03-02T08:08:35;0.90;99.90
19906;DHT22;10115;50.906;4.438;2023-03-02T08:11:06;1.00;99.90
19906;DHT22;10115;50.906;4.438;2023-03-02T08:13:31;1.00;99.90
19906;DHT22;10115;50.906;4.438;2023-03-02T08:16:03;1.10;99.90
19906;DHT22;10115;50.906;4.438;2023-03-02T08:18:29;1.20;99.90
19906;DHT22;10115;50.906;4.438;2023-03-02T08:20:55;1.30;99.90
19906;DHT22;10115;50.906;4.438;2023-03-02T08:23:21;1.40;99.90
19906;DHT22;10115;50.906;4.438;2023-03-02T08:25:47;1.60;99.90
19906;DHT22;10115;50.906;4.438;2023-03-02T08:28:13;1.60;99.90
19906;DHT22;10115;50.906;4.438;2023-03-02T08:30:38;1.60;99.90
19906;DHT22;10115;50.906;4.438;2023-03-02T08:33:04;1.60;99.90
19906;DHT22;10115;50.906;4.438;2023-03-02T08:35:30;1.70;99.90
19906;DHT22;10115;50.906;4.438;2023-03-02T08:37:56;1.80;99.90
19906;DHT22;10115;50.906;4.438;2023-03-02T08:40:21;1.80;99.90
19906;DHT22;10115;50.906;4.438;2023-03-02T08:42:47;1.90;99.90
19906;DHT22;10115;50.906;4.438;2023-03-02T08:45:14;2.10;99.90
19906;DHT22;10115;50.906;4.438;2023-03-02T08:47:40;2.00;99.90
19906;DHT22;10115;50.906;4.438;2023-03-02T08:50:06;2.00;99.90
19906;DHT22;10115;50.906;4.438;2023-03-02T08:52:35;2.20;99.90
19906;DHT22;10115;50.906;4.438;2023-03-02T08:55:00;2.30;99.90
19906;DHT22;10115;50.906;4.438;2023-03-02T08:57:26;2.30;99.90
19906;DHT22;10115;50.906;4.438;2023-03-02T08:59:52;2.40;99.90
19906;DHT22;10115;50.906;4.438;2023-03-02T09:02:18;2.40;99.90
19906;DHT22;10115;50.906;4.438;2023-03-02T09:04:43;2.50;99.90
19906;DHT22;10115;50.906;4.438;2023-03-02T09:07:09;2.50;99.90
19906;DHT22;10115;50.906;4.438;2023-03-02T09:09:35;2.50;99.90
19906;DHT22;10115;50.906;4.438;2023-03-02T09:12:00;2.50;99.90
19906;DHT22;10115;50.906;4.438;2023-03-02T09:14:26;2.50;99.90
19906;DHT22;10115;50.906;4.438;2023-03-02T09:16:52;2.50;99.90
19906;DHT22;10115;50.906;4.438;2023-03-02T09:19:19;2.50;99.90
19906;DHT22;10115;50.906;4.438;2023-03-02T09:21:44;2.70;99.90
19906;DHT22;10115;50.906;4.438;2023-03-02T09:24:10;2.80;99.90
19906;DHT22;10115;50.906;4.438;2023-03-02T09:26:36;2.90;99.90
19906;DHT22;10115;50.906;4.438;2023-03-02T09:29:03;3.00;99.90
19906;DHT22;10115;50.906;4.438;2023-03-02T09:31:33;3.20;99.90
19906;DHT22;10115;50.906;4.438;2023-03-02T09:33:58;3.20;99.90
19906;DHT22;10115;50.906;4.438;2023-03-02T09:36:25;3.10;99.90
19906;DHT22;10115;50.906;4.438;2023-03-02T09:38:51;3.10;99.90
19906;DHT22;10115;50.906;4.438;2023-03-02T09:46:47;3.30;99.90
19906;DHT22;10115;50.906;4.438;2023-03-02T09:54:48;3.60;99.90
19906;DHT22;10115;50.906;4.438;2023-03-02T09:57:30;3.70;99.90
19906;DHT22;10115;50.906;4.438;2023-03-02T10:00:00;3.70;99.90
19906;DHT22;10115;50.906;4.438;2023-03-02T10:02:45;3.70;99.90
19906;DHT22;10115;50.906;4.438;2023-03-02T10:08:01;3.70;99.90
19906;DHT22;10115;50.906;4.438;2023-03-02T10:13:21;3.70;99.90
19906;DHT22;10115;50.906;4.438;2023-03-02T10:18:45;3.90;99.90
19906;DHT22;10115;50.906;4.438;2023-03-02T10:21:24;3.90;99.90
19906;DHT22;10115;50.906;4.438;2023-03-02T10:26:48;4.10;99.90
19906;DHT22;10115;50.906;4.438;2023-03-02T10:29:32;4.30;99.90
19906;DHT22;10115;50.906;4.438;2023-03-02T10:34:35;4.40;99.90
19906;DHT22;10115;50.906;4.438;2023-03-02T10:37:04;4.40;99.90
19906;DHT22;10115;50.906;4.438;2023-03-02T10:39:33;4.60;99.90
19906;DHT22;10115;50.906;4.438;2023-03-02T10:42:02;4.60;99.90
19906;DHT22;10115;50.906;4.438;2023-03-02T10:44:35;4.70;99.90
19906;DHT22;10115;50.906;4.438;2023-03-02T10:47:04;4.70;99.90
19906;DHT22;10115;50.906;4.438;2023-03-02T10:49:30;4.80;99.90
19906;DHT22;10115;50.906;4.438;2023-03-02T10:52:05;5.10;99.90
19906;DHT22;10115;50.906;4.438;2023-03-02T10:54:33;5.20;99.90
19906;DHT22;10115;50.906;4.438;2023-03-02T10:57:01;5.20;99.90
19906;DHT22;10115;50.906;4.438;2023-03-02T10:59:45;5.20;99.90
19906;DHT22;10115;50.906;4.438;2023-03-02T11:02:23;5.20;99.90
19906;DHT22;10115;50.906;4.438;2023-03-02T11:04:54;5.30;99.90
19906;DHT22;10115;50.906;4.438;2023-03-02T11:07:22;5.30;99.90
19906;DHT22;10115;50.906;4.438;2023-03-02T11:10:16;5.40;99.90
19906;DHT22;10115;50.906;4.438;2023-03-02T11:12:46;5.60;99.90
19906;DHT22;10115;50.906;4.438;2023-03-02T11:17:49;5.70;99.90
19906;DHT22;10115;50.906;4.438;2023-03-02T11:20:24;5.70;99.90
19906;DHT22;10115;50.906;4.438;2023-03-02T11:25:31;6.00;99.90
19906;DHT22;10115;50.906;4.438;2023-03-02T11:28:04;5.90;99.90
19906;DHT22;10115;50.906;4.438;2023-03-02T11:30:37;6.00;99.90
19906;DHT22;10115;50.906;4.438;2023-03-02T11:33:18;6.10;99.90
19906;DHT22;10115;50.906;4.438;2023-03-02T11:38:46;6.30;99.90
19906;DHT22;10115;50.906;4.438;2023-03-02T11:41:33;6.40;99.90
19906;DHT22;10115;50.906;4.438;2023-03-02T11:44:06;6.60;99.90
19906;DHT22;10115;50.906;4.438;2023-03-02T11:46:36;6.70;99.90
19906;DHT22;10115;50.906;4.438;2023-03-02T11:49:16;6.80;99.90
19906;DHT22;10115;50.906;4.438;2023-03-02T11:51:54;6.80;99.90
19906;DHT22;10115;50.906;4.438;2023-03-02T11:54:43;7.00;99.90
19906;DHT22;10115;50.906;4.438;2023-03-02T11:57:31;7.00;99.90
19906;DHT22;10115;50.906;4.438;2023-03-02T11:59:58;7.20;99.90
19906;DHT22;10115;50.906;4.438;2023-03-02T12:02:26;7.20;99.90
19906;DHT22;10115;50.906;4.438;2023-03-02T12:05:19;7.10;99.90
19906;DHT22;10115;50.906;4.438;2023-03-02T12:07:57;7.30;99.90
19906;DHT22;10115;50.906;4.438;2023-03-02T12:10:30;7.40;99.90
19906;DHT22;10115;50.906;4.438;2023-03-02T12:13:23;7.50;99.90
19906;DHT22;10115;50.906;4.438;2023-03-02T12:15:49;7.70;99.90
19906;DHT22;10115;50.906;4.438;2023-03-02T12:21:06;7.80;99.90
19906;DHT22;10115;50.906;4.438;2023-03-02T12:23:35;7.90;99.90
19906;DHT22;10115;50.906;4.438;2023-03-02T12:31:53;7.80;99.90
19906;DHT22;10115;50.906;4.438;2023-03-02T12:34:40;7.90;99.90
19906;DHT22;10115;50.906;4.438;2023-03-02T12:37:14;8.00;99.90
19906;DHT22;10115;50.906;4.438;2023-03-02T12:42:44;8.20;99.90
19906;DHT22;10115;50.906;4.438;2023-03-02T12:48:13;8.40;99.90
19906;DHT22;10115;50.906;4.438;2023-03-02T12:50:40;8.30;99.90
19906;DHT22;10115;50.906;4.438;2023-03-02T12:53:16;8.50;99.90
19906;DHT22;10115;50.906;4.438;2023-03-02T12:55:42;8.50;99.90
19906;DHT22;10115;50.906;4.438;2023-03-02T12:58:26;8.40;99.90
19906;DHT22;10115;50.906;4.438;2023-03-02T13:01:00;8.50;99.90
19906;DHT22;10115;50.906;4.438;2023-03-02T13:03:28;8.80;99.90
19906;DHT22;10115;50.906;4.438;2023-03-02T13:06:04;8.90;99.90
19906;DHT22;10115;50.906;4.438;2023-03-02T13:08:35;9.00;99.90
19906;DHT22;10115;50.906;4.438;2023-03-02T13:11:02;9.00;99.90
19906;DHT22;10115;50.906;4.438;2023-03-02T13:15:59;9.30;99.90
19906;DHT22;10115;50.906;4.438;2023-03-02T13:18:30;9.30;99.90
19906;DHT22;10115;50.906;4.438;2023-03-02T13:21:01;9.40;99.90
19906;DHT22;10115;50.906;4.438;2023-03-02T13:23:29;9.50;99.90
19906;DHT22;10115;50.906;4.438;2023-03-02T13:26:01;9.60;99.90
19906;DHT22;10115;50.906;4.438;2023-03-02T13:28:38;9.80;99.90
19906;DHT22;10115;50.906;4.438;2023-03-02T13:31:13;9.80;99.90
19906;DHT22;10115;50.906;4.438;2023-03-02T13:33:44;9.40;99.90
19906;DHT22;10115;50.906;4.438;2023-03-02T13:36:24;9.50;99.90
19906;DHT22;10115;50.906;4.438;2023-03-02T13:38:54;9.50;99.90
19906;DHT22;10115;50.906;4.438;2023-03-02T13:41:25;9.60;99.90
19906;DHT22;10115;50.906;4.438;2023-03-02T13:43:51;9.60;99.90
19906;DHT22;10115;50.906;4.438;2023-03-02T13:48:59;9.60;99.90
19906;DHT22;10115;50.906;4.438;2023-03-02T13:51:31;9.50;99.90
19906;DHT22;10115;50.906;4.438;2023-03-02T13:53:59;9.80;99.90
19906;DHT22;10115;50.906;4.438;2023-03-02T13:56:32;10.20;99.90
19906;DHT22;10115;50.906;4.438;2023-03-02T13:58:59;10.90;99.90
19906;DHT22;10115;50.906;4.438;2023-03-02T14:01:26;11.50;99.90
19906;DHT22;10115;50.906;4.438;2023-03-02T14:03:52;11.60;99.90
19906;DHT22;10115;50.906;4.438;2023-03-02T14:06:18;11.80;99.90
19906;DHT22;10115;50.906;4.438;2023-03-02T14:08:47;12.10;99.90
19906;DHT22;10115;50.906;4.438;2023-03-02T14:11:15;12.70;99.90
19906;DHT22;10115;50.906;4.438;2023-03-02T14:13:45;13.30;99.90
19906;DHT22;10115;50.906;4.438;2023-03-02T14:16:13;13.90;99.90
19906;DHT22;10115;50.906;4.438;2023-03-02T14:18:41;14.40;99.90
19906;DHT22;10115;50.906;4.438;2023-03-02T14:21:18;14.10;99.90
19906;DHT22;10115;50.906;4.438;2023-03-02T14:23:44;14.20;99.90
19906;DHT22;10115;50.906;4.438;2023-03-02T14:26:36;14.40;99.90
19906;DHT22;10115;50.906;4.438;2023-03-02T14:29:27;14.60;99.90
19906;DHT22;10115;50.906;4.438;2023-03-02T14:31:53;14.80;99.90
19906;DHT22;10115;50.906;4.438;2023-03-02T14:34:19;14.10;99.90
19906;DHT22;10115;50.906;4.438;2023-03-02T14:36:49;13.80;99.90
19906;DHT22;10115;50.906;4.438;2023-03-02T14:39:31;14.10;99.90
19906;DHT22;10115;50.906;4.438;2023-03-02T14:41:57;14.70;99.90
19906;DHT22;10115;50.906;4.438;2023-03-02T14:44:23;15.20;99.90
19906;DHT22;10115;50.906;4.438;2023-03-02T14:46:49;15.60;99.90
19906;DHT22;10115;50.906;4.438;2023-03-02T14:49:15;15.80;99.90
19906;DHT22;10115;50.906;4.438;2023-03-02T14:51:42;15.20;99.90
19906;DHT22;10115;50.906;4.438;2023-03-02T14:54:13;14.80;99.90
19906;DHT22;10115;50.906;4.438;2023-03-02T14:56:42;15.20;99.90
19906;DHT22;10115;50.906;4.438;2023-03-02T14:59:11;15.30;99.90
19906;DHT22;10115;50.906;4.438;2023-03-02T15:01:37;15.30;99.90
19906;DHT22;10115;50.906;4.438;2023-03-02T15:04:04;15.20;99.90
19906;DHT22;10115;50.906;4.438;2023-03-02T15:06:31;15.10;99.90
19906;DHT22;10115;50.906;4.438;2023-03-02T15:08:59;15.40;99.90
19906;DHT22;10115;50.906;4.438;2023-03-02T15:11:26;15.90;99.90
19906;DHT22;10115;50.906;4.438;2023-03-02T15:13:53;16.40;99.90
19906;DHT22;10115;50.906;4.438;2023-03-02T15:16:19;16.10;99.90
19906;DHT22;10115;50.906;4.438;2023-03-02T15:18:44;15.70;99.90
19906;DHT22;10115;50.906;4.438;2023-03-02T15:21:18;15.80;99.90
19906;DHT22;10115;50.906;4.438;2023-03-02T15:23:44;15.40;99.90
19906;DHT22;10115;50.906;4.438;2023-03-02T15:26:11;15.70;99.90
19906;DHT22;10115;50.906;4.438;2023-03-02T15:28:37;15.80;99.90
19906;DHT22;10115;50.906;4.438;2023-03-02T15:31:13;15.30;99.90
19906;DHT22;10115;50.906;4.438;2023-03-02T15:33:39;15.50;99.90
19906;DHT22;10115;50.906;4.438;2023-03-02T15:36:05;15.80;99.90
19906;DHT22;10115;50.906;4.438;2023-03-02T15:38:32;16.00;99.90
19906;DHT22;10115;50.906;4.438;2023-03-02T15:41:06;16.10;99.90
19906;DHT22;10115;50.906;4.438;2023-03-02T15:43:32;16.20;99.90
19906;DHT22;10115;50.906;4.438;2023-03-02T15:45:58;16.20;99.90
19906;DHT22;10115;50.906;4.438;2023-03-02T15:48:27;16.40;99.90
19906;DHT22;10115;50.906;4.438;2023-03-02T15:51:02;16.60;99.90
19906;DHT22;10115;50.906;4.438;2023-03-02T15:53:29;16.60;99.90
19906;DHT22;10115;50.906;4.438;2023-03-02T15:55:55;15.40;99.90
19906;DHT22;10115;50.906;4.438;2023-03-02T15:58:21;14.30;99.90
19906;DHT22;10115;50.906;4.438;2023-03-02T16:00:47;14.30;99.90
19906;DHT22;10115;50.906;4.438;2023-03-02T16:03:13;14.50;99.90
19906;DHT22;10115;50.906;4.438;2023-03-02T16:05:39;13.80;99.90
19906;DHT22;10115;50.906;4.438;2023-03-02T16:08:05;13.80;99.90
19906;DHT22;10115;50.906;4.438;2023-03-02T16:10:31;13.90;99.90
19906;DHT22;10115;50.906;4.438;2023-03-02T16:13:06;14.40;99.90
19906;DHT22;10115;50.906;4.438;2023-03-02T16:15:39;14.50;99.90
19906;DHT22;10115;50.906;4.438;2023-03-02T16:18:09;14.60;99.90
19906;DHT22;10115;50.906;4.438;2023-03-02T16:20:36;15.10;99.90
19906;DHT22;10115;50.906;4.438;2023-03-02T16:23:02;15.10;99.90
19906;DHT22;10115;50.906;4.438;2023-03-02T16:25:35;14.90;99.90
19906;DHT22;10115;50.906;4.438;2023-03-02T16:28:04;13.50;99.90
19906;DHT22;10115;50.906;4.438;2023-03-02T16:30:30;12.70;99.90
19906;DHT22;10115;50.906;4.438;2023-03-02T16:33:01;11.70;99.90
19906;DHT22;10115;50.906;4.438;2023-03-02T16:35:28;11.10;99.90
19906;DHT22;10115;50.906;4.438;2023-03-02T16:37:54;10.60;99.90
19906;DHT22;10115;50.906;4.438;2023-03-02T16:40:21;10.20;99.90
19906;DHT22;10115;50.906;4.438;2023-03-02T16:42:47;10.10;99.90
19906;DHT22;10115;50.906;4.438;2023-03-02T16:45:13;9.90;99.90